Zim Luanda — 9HA2029 — position and weather

sailwx.info

Track history (hours):
 
Tides and Currents Weather Stations Pressure Air Temp Water Temp Dewpoint Dewpoint Depression Visibility Wind Speed Wind Dir Waves Ship Positions

Zim Luanda

Last reported at 2016-Feb-12 15:33 UTC. Time now 2016-Feb-12 16:16 UTC.
Position N 34°53' W 026°04'.

Length 260 m; draft 10.5 m.

Type: Ship (hazmat cat A). MMSI: 249830000.

Date/timePositionNaut miles runAvg speedWind from/ knotsBaromVisibWave heightAir tempDewpointWater temp
2016-Feb-12 15:33N 34°53' W 026°04'1717.3
2016-Feb-12 14:33N 34°52' W 026°25'1817.2
2016-Feb-12 13:29N 34°51' W 026°48'1617.3
2016-Feb-12 12:33N 34°50' W 027°07'1817.3
2016-Feb-12 11:29N 34°49' W 027°30'1717.0
2016-Feb-12 10:27N 34°48' W 027°51'7017.2
2016-Feb-12 06:23N 34°43' W 029°16'6817.2
2016-Feb-12 02:26N 34°39' W 030°39'  
2016-Feb-05 18:34N 31°56' W 080°34'9 9.2
2016-Feb-05 17:33N 31°59' W 080°45'1312.7
2016-Feb-05 16:33N 32°04' W 080°58'8 7.7
2016-Feb-05 15:34N 32°06' W 081°07'2 2.3
2016-Feb-05 14:32N 32°08' W 081°09'0 0.0
2016-Feb-05 13:29N 32°08' W 081°09'0 0.0
2016-Feb-05 12:32N 32°08' W 081°09'0 0.0
2016-Feb-05 11:32N 32°08' W 081°09'0 0.0
2016-Feb-05 10:32N 32°08' W 081°09'0 0.0
2016-Feb-05 09:32N 32°08' W 081°09'0 0.0
2016-Feb-05 08:32N 32°08' W 081°09'0 0.0
2016-Feb-05 07:32N 32°08' W 081°09'0 0.0
2016-Feb-05 06:32N 32°08' W 081°09'0 0.0
2016-Feb-05 05:32N 32°08' W 081°09'0 0.0
2016-Feb-05 04:32N 32°08' W 081°09'0 0.0
2016-Feb-05 03:32N 32°08' W 081°09'0 0.0
2016-Feb-05 02:32N 32°08' W 081°09'0 0.0
2016-Feb-05 01:32N 32°08' W 081°09'0 0.0
2016-Feb-05 00:32N 32°08' W 081°09'0 0.0
2016-Feb-04 23:32N 32°08' W 081°09'0 0.0
2016-Feb-04 22:31N 32°08' W 081°09'0 0.0
2016-Feb-04 21:31N 32°08' W 081°09'0 0.0
2016-Feb-04 20:31N 32°08' W 081°09'0 0.0
2016-Feb-04 19:32N 32°08' W 081°09'0 0.0
2016-Feb-04 18:32N 32°08' W 081°09'1 1.5
2016-Feb-04 17:33N 32°07' W 081°08'6 5.6
2016-Feb-04 16:33N 32°06' W 081°01'1010.3
2016-Feb-04 15:33N 32°02' W 080°50'38310.1
2016-Feb-03 01:33N 36°47' W 075°40'10 9.8
2016-Feb-03 00:31N 36°51' W 075°52'9 9.5
2016-Feb-02 23:33N 36°57' W 076°01'1613.1
2016-Feb-02 22:22N 36°58' W 076°20'5 6.2
2016-Feb-02 21:31N 36°52' W 076°21'0 0.0
2016-Feb-02 20:31N 36°52' W 076°21'0 0.0
2016-Feb-02 19:31N 36°52' W 076°21'0 0.0
2016-Feb-02 18:28N 36°52' W 076°21'0 0.0
2016-Feb-02 17:31N 36°52' W 076°21'0 0.0
2016-Feb-02 16:31N 36°52' W 076°21'  
Track history (hours):
 
Tides and Currents Weather Stations Pressure Air Temp Water Temp Dewpoint Dewpoint Depression Visibility Wind Speed Wind Dir Waves Ship Positions

Zim Luanda

Last reported at 2016-Feb-12 15:33 UTC. Time now 2016-Feb-12 16:16 UTC.
Position N 34°53' W 026°04'.

Length 260 m; draft 10.5 m.

Type: Ship (hazmat cat A). MMSI: 249830000.

Date/timePositionNaut miles runAvg speedWind from/ knotsBaromVisibWave heightAir tempDewpointWater temp
2016-Feb-12 15:33N 34°53' W 026°04'1717.3
2016-Feb-12 14:33N 34°52' W 026°25'1817.2
2016-Feb-12 13:29N 34°51' W 026°48'1617.3
2016-Feb-12 12:33N 34°50' W 027°07'1817.3
2016-Feb-12 11:29N 34°49' W 027°30'1717.0
2016-Feb-12 10:27N 34°48' W 027°51'7017.2
2016-Feb-12 06:23N 34°43' W 029°16'6817.2
2016-Feb-12 02:26N 34°39' W 030°39'  
2016-Feb-05 18:34N 31°56' W 080°34'9 9.2
2016-Feb-05 17:33N 31°59' W 080°45'1312.7
2016-Feb-05 16:33N 32°04' W 080°58'8 7.7
2016-Feb-05 15:34N 32°06' W 081°07'2 2.3
2016-Feb-05 14:32N 32°08' W 081°09'0 0.0
2016-Feb-05 13:29N 32°08' W 081°09'0 0.0
2016-Feb-05 12:32N 32°08' W 081°09'0 0.0
2016-Feb-05 11:32N 32°08' W 081°09'0 0.0
2016-Feb-05 10:32N 32°08' W 081°09'0 0.0
2016-Feb-05 09:32N 32°08' W 081°09'0 0.0
2016-Feb-05 08:32N 32°08' W 081°09'0 0.0
2016-Feb-05 07:32N 32°08' W 081°09'0 0.0
2016-Feb-05 06:32N 32°08' W 081°09'0 0.0
2016-Feb-05 05:32N 32°08' W 081°09'0 0.0
2016-Feb-05 04:32N 32°08' W 081°09'0 0.0
2016-Feb-05 03:32N 32°08' W 081°09'0 0.0
2016-Feb-05 02:32N 32°08' W 081°09'0 0.0
2016-Feb-05 01:32N 32°08' W 081°09'0 0.0
2016-Feb-05 00:32N 32°08' W 081°09'0 0.0
2016-Feb-04 23:32N 32°08' W 081°09'0 0.0
2016-Feb-04 22:31N 32°08' W 081°09'0 0.0
2016-Feb-04 21:31N 32°08' W 081°09'0 0.0
2016-Feb-04 20:31N 32°08' W 081°09'0 0.0
2016-Feb-04 19:32N 32°08' W 081°09'0 0.0
2016-Feb-04 18:32N 32°08' W 081°09'1 1.5
2016-Feb-04 17:33N 32°07' W 081°08'6 5.6
2016-Feb-04 16:33N 32°06' W 081°01'1010.3
2016-Feb-04 15:33N 32°02' W 080°50'38310.1
2016-Feb-03 01:33N 36°47' W 075°40'10 9.8
2016-Feb-03 00:31N 36°51' W 075°52'9 9.5
2016-Feb-02 23:33N 36°57' W 076°01'1613.1
2016-Feb-02 22:22N 36°58' W 076°20'5 6.2
2016-Feb-02 21:31N 36°52' W 076°21'0 0.0
2016-Feb-02 20:31N 36°52' W 076°21'0 0.0
2016-Feb-02 19:31N 36°52' W 076°21'0 0.0
2016-Feb-02 18:28N 36°52' W 076°21'0 0.0
2016-Feb-02 17:31N 36°52' W 076°21'0 0.0
2016-Feb-02 16:31N 36°52' W 076°21'  

Dump ship's entire track history